Time;durP1;ratioP1;P1;durP2;ratioP2;P2;SDS_P1;SDS_P2;PMS_P1;PMS_P2;Temp;Humidity;BMP_temperature;BMP_pressure;BME280_temperature;BME280_humidity;BME280_pressure;Samples;Min_cycle;Max_cycle;Signal;HPM_P1;HPM_P2
2021/10/28 00:12:31;;;;;;;;;;;;;;;;;;349008;28;1377;-86
2021/10/28 00:13:01;;;;;;;;;;;;;;;;;;349895;28;1011;-81
2021/10/28 00:13:15;;;;;;;;;;;;;;;;;;349912;28;940;-84
2021/10/28 00:13:54;;;;;;;;;;;;;;;;;;351183;28;1508;-87
2021/10/28 00:14:05;;;;;;;;;;;;;;;;;;349837;28;1321;-87
2021/10/28 00:14:16;;;;;;;;;;;;;;;;;;349911;28;1035;-84
2021/10/28 00:14:27;;;;;;;;;;;;;;;;;;349875;28;924;-85
2021/10/28 00:14:39;;;;;;;;;;;;;;;;;;348484;28;948;-86
2021/10/28 00:15:22;;;;;;;;;;;;;;;;;;348496;28;1003;-84
2021/10/28 00:15:29;;;;;;;;;;;;;;;;;;348425;28;1349;-81
2021/10/28 00:15:43;;;;;;;;;;;;;;;;;;348510;28;996;-82
2021/10/28 00:15:56;;;;;;;;;;;;;;;;;;347075;28;1208;-83
2021/10/28 00:16:26;;;;;;;;;;;;;;;;;;349901;28;856;-86
2021/10/28 00:16:36;;;;;;;;;;;;;;;;;;349515;28;1008;-87
2021/10/28 00:16:49;;;;;;;;;;;;;;;;;;348374;28;1179;-85
2021/10/28 00:17:02;;;;;;;;;;;;;;;;;;348509;28;988;-85
2021/10/28 00:17:47;;;;;;;;;;;;;;;;;;348515;28;917;-86
2021/10/28 00:18:17;;;;;;;;;;;;;;;;;;346973;28;1902;-80
2021/10/28 00:18:39;;;;;;;;;;;;;;;;;;347182;28;984;-86
2021/10/28 00:18:59;;;;;;;;;;;;;;;;;;351193;28;1286;-79
2021/10/28 00:19:10;;;;;;;;;;;;;;;;;;351237;28;1060;-86
2021/10/28 00:19:21;;;;;;;;;;;;;;;;;;351363;28;1019;-87
2021/10/28 00:19:31;;;;;;;;;;;;;;;;;;348400;28;1185;-88
2021/10/28 00:19:48;;;;;;;;;;;;;;;;;;348410;28;1368;-85
2021/10/28 00:19:58;;;;;;;;;;;;;;;;;;348399;28;1562;-85
2021/10/28 00:20:27;;;;;;;;;;;;;;;;;;346874;28;1168;-82
2021/10/28 00:20:37;;;;;;;;;;;;;;;;;;348525;28;853;-77
2021/10/28 00:20:52;;;;;;;;;;;;;;;;;;348607;28;841;-84
2021/10/28 00:21:03;;;;;;;;;;;;;;;;;;348499;28;898;-87
2021/10/28 00:21:14;;;;;;;;;;;;;;;;;;348409;28;1501;-84
2021/10/28 00:21:34;;;;;;;;;;;;;;;;;;347023;28;1459;-81
2021/10/28 00:21:49;;;;;;;;;;;;;;;;;;347024;28;1171;-85
2021/10/28 00:22:01;;;;;;;;;;;;;;;;;;346833;28;1189;-87
2021/10/28 00:22:13;;;;;;;;;;;;;;;;;;347137;28;959;-78
2021/10/28 00:22:26;;;;;;;;;;;;;;;;;;345691;28;1286;-86
2021/10/28 00:22:39;;;;;;;;;;;;;;;;;;345833;28;866;-84
2021/10/28 00:22:50;;;;;;;;;;;;;;;;;;345800;28;849;-87
2021/10/28 00:23:02;;;;;;;;;;;;;;;;;;345702;28;1265;-85
2021/10/28 00:23:13;;;;;;;;;;;;;;;;;;345798;28;989;-86
2021/10/28 00:23:24;;;;;;;;;;;;;;;;;;347017;28;1301;-86
2021/10/28 00:23:42;;;;;;;;;;;;;;;;;;347049;28;1151;-82
2021/10/28 00:23:54;;;;;;;;;;;;;;;;;;347170;28;976;-85
2021/10/28 00:24:06;;;;;;;;;;;;;;;;;;347049;28;1589;-85
2021/10/28 00:24:16;;;;;;;;;;;;;;;;;;346858;28;1396;-79
2021/10/28 00:24:27;;;;;;;;;;;;;;;;;;348086;28;1279;-79
2021/10/28 00:24:49;;;;;;;;;;;;;;;;;;348501;28;1031;-82
2021/10/28 00:24:59;;;;;;;;;;;;;;;;;;349833;28;1543;-88
2021/10/28 00:25:10;;;;;;;;;;;;;;;;;;346713;28;1217;-85
2021/10/28 00:25:23;;;;;;;;;;;;;;;;;;345591;28;1462;-86
2021/10/28 00:25:34;;;;;;;;;;;;;;;;;;348466;28;1656;-83
2021/10/28 00:25:44;;;;;;;;;;;;;;;;;;345645;28;933;-86
2021/10/28 00:25:55;;;;;;;;;;;;;;;;;;345511;28;958;-85
2021/10/28 00:26:07;;;;;;;;;;;;;;;;;;347076;28;1151;-81
2021/10/28 00:26:59;;;;;;;;;;;;;;;;;;347021;28;1192;-85
2021/10/28 00:27:10;;;;;;;;;;;;;;;;;;348471;28;1329;-82
2021/10/28 00:27:23;;;;;;;;;;;;;;;;;;348563;28;969;-86
2021/10/28 00:27:34;;;;;;;;;;;;;;;;;;347010;28;1390;-88
2021/10/28 00:27:44;;;;;;;;;;;;;;;;;;345832;28;1468;-84
2021/10/28 00:27:55;;;;;;;;;;;;;;;;;;346997;28;1516;-85
2021/10/28 00:28:06;;;;;;;;;;;;;;;;;;348256;28;962;-86
2021/10/28 00:28:18;;;;;;;;;;;;;;;;;;348369;28;1032;-80
2021/10/28 00:28:59;;;;;;;;;;;;;;;;;;345782;28;1041;-86
2021/10/28 00:29:10;;;;;;;;;;;;;;;;;;345728;28;1424;-78
2021/10/28 00:29:36;;;;;;;;;;;;;;;;;;345869;28;878;-87
2021/10/28 00:29:47;;;;;;;;;;;;;;;;;;348447;28;846;-85
2021/10/28 00:29:57;;;;;;;;;;;;;;;;;;347186;28;889;-86
2021/10/28 00:30:08;;;;;;;;;;;;;;;;;;347101;28;992;-83
2021/10/28 00:30:19;;;;;;;;;;;;;;;;;;349300;28;1005;-84
2021/10/28 00:30:29;;;;;;;;;;;;;;;;;;351235;28;805;-85
2021/10/28 00:30:40;;;;;;;;;;;;;;;;;;351313;28;829;-80
2021/10/28 00:30:50;;;;;;;;;;;;;;;;;;351309;28;880;-84
2021/10/28 00:31:01;;;;;;;;;;;;;;;;;;348488;28;1298;-86
2021/10/28 00:31:11;;;;;;;;;;;;;;;;;;347092;28;1581;-83
2021/10/28 00:31:22;;;;;;;;;;;;;;;;;;346944;28;1015;-79
2021/10/28 00:31:33;;;;;;;;;;;;;;;;;;347060;28;897;-80
2021/10/28 00:31:45;;;;;;;;;;;;;;;;;;346934;28;1431;-85
2021/10/28 00:31:56;;;;;;;;;;;;;;;;;;344463;28;1665;-86
2021/10/28 00:32:07;;;;;;;;;;;;;;;;;;345790;28;819;-87
2021/10/28 00:32:18;;;;;;;;;;;;;;;;;;345716;28;1595;-86
2021/10/28 00:32:28;;;;;;;;;;;;;;;;;;345822;28;1229;-81
2021/10/28 00:32:39;;;;;;;;;;;;;;;;;;347143;28;1031;-83
2021/10/28 00:32:49;;;;;;;;;;;;;;;;;;348483;28;1203;-86
2021/10/28 00:33:00;;;;;;;;;;;;;;;;;;349850;28;1433;-84
2021/10/28 00:33:10;;;;;;;;;;;;;;;;;;348185;28;1294;-86
2021/10/28 00:33:20;;;;;;;;;;;;;;;;;;346954;28;983;-87
2021/10/28 00:33:31;;;;;;;;;;;;;;;;;;347164;28;936;-86
2021/10/28 00:33:57;;;;;;;;;;;;;;;;;;347174;28;822;-85
2021/10/28 00:34:09;;;;;;;;;;;;;;;;;;348463;28;1408;-83
2021/10/28 00:34:46;;;;;;;;;;;;;;;;;;348492;28;838;-82
2021/10/28 00:34:59;;;;;;;;;;;;;;;;;;348390;28;1035;-86
2021/10/28 00:35:16;;;;;;;;;;;;;;;;;;351302;28;1043;-85
2021/10/28 00:35:26;;;;;;;;;;;;;;;;;;349919;28;936;-86
2021/10/28 00:36:04;;;;;;;;;;;;;;;;;;348075;28;1016;-84
2021/10/28 00:36:15;;;;;;;;;;;;;;;;;;347042;28;1375;-85
2021/10/28 00:36:26;;;;;;;;;;;;;;;;;;347026;28;1020;-85
2021/10/28 00:37:03;;;;;;;;;;;;;;;;;;347134;28;1032;-85
2021/10/28 00:37:13;;;;;;;;;;;;;;;;;;346980;28;1286;-87
2021/10/28 00:37:24;;;;;;;;;;;;;;;;;;347130;28;1068;-87
2021/10/28 00:38:01;;;;;;;;;;;;;;;;;;347125;28;1044;-86
2021/10/28 00:38:11;;;;;;;;;;;;;;;;;;346237;28;1890;-87
2021/10/28 00:38:22;;;;;;;;;;;;;;;;;;346753;28;1136;-86
2021/10/28 00:38:33;;;;;;;;;;;;;;;;;;346831;28;1028;-87
2021/10/28 00:38:44;;;;;;;;;;;;;;;;;;347094;28;999;-84
2021/10/28 00:38:55;;;;;;;;;;;;;;;;;;347151;28;1019;-84
2021/10/28 00:39:07;;;;;;;;;;;;;;;;;;347056;28;992;-87
2021/10/28 00:39:18;;;;;;;;;;;;;;;;;;347154;28;869;-87
2021/10/28 00:39:54;;;;;;;;;;;;;;;;;;347116;28;1012;-86
2021/10/28 00:40:08;;;;;;;;;;;;;;;;;;347083;28;969;-86
2021/10/28 00:40:19;;;;;;;;;;;;;;;;;;348388;28;1305;-83
2021/10/28 00:40:29;;;;;;;;;;;;;;;;;;348457;28;940;-83
2021/10/28 00:40:40;;;;;;;;;;;;;;;;;;346979;28;1321;-85
2021/10/28 00:41:18;;;;;;;;;;;;;;;;;;346987;28;933;-82
2021/10/28 00:41:29;;;;;;;;;;;;;;;;;;346926;28;1287;-85
2021/10/28 00:41:40;;;;;;;;;;;;;;;;;;347141;28;818;-86
2021/10/28 00:42:06;;;;;;;;;;;;;;;;;;347187;28;815;-86
2021/10/28 00:42:17;;;;;;;;;;;;;;;;;;346601;28;1619;-83
2021/10/28 00:42:28;;;;;;;;;;;;;;;;;;347087;28;989;-83
2021/10/28 00:42:39;;;;;;;;;;;;;;;;;;345654;28;1556;-85
2021/10/28 00:42:49;;;;;;;;;;;;;;;;;;346718;28;988;-82
2021/10/28 00:43:00;;;;;;;;;;;;;;;;;;347031;28;1422;-86
2021/10/28 00:43:11;;;;;;;;;;;;;;;;;;349891;28;941;-85
2021/10/28 00:43:21;;;;;;;;;;;;;;;;;;348130;28;953;-83
2021/10/28 00:43:33;;;;;;;;;;;;;;;;;;348414;28;988;-83
2021/10/28 00:43:45;;;;;;;;;;;;;;;;;;348468;28;814;-86
2021/10/28 00:43:57;;;;;;;;;;;;;;;;;;347043;28;1436;-81
2021/10/28 00:44:08;;;;;;;;;;;;;;;;;;348209;28;994;-85
2021/10/28 00:44:19;;;;;;;;;;;;;;;;;;348499;28;900;-81
2021/10/28 00:44:29;;;;;;;;;;;;;;;;;;348386;28;1364;-84
2021/10/28 00:44:39;;;;;;;;;;;;;;;;;;348495;28;940;-84
2021/10/28 00:44:50;;;;;;;;;;;;;;;;;;346947;28;1306;-82
2021/10/28 00:45:07;;;;;;;;;;;;;;;;;;347074;28;1290;-80
2021/10/28 00:45:22;;;;;;;;;;;;;;;;;;345823;28;802;-85
2021/10/28 00:45:33;;;;;;;;;;;;;;;;;;348239;28;939;-79
2021/10/28 00:45:43;;;;;;;;;;;;;;;;;;348448;28;661;-85
2021/10/28 00:46:21;;;;;;;;;;;;;;;;;;348365;28;1582;-84
2021/10/28 00:46:32;;;;;;;;;;;;;;;;;;349640;28;1261;-84
2021/10/28 00:46:43;;;;;;;;;;;;;;;;;;349643;28;846;-82
2021/10/28 00:46:54;;;;;;;;;;;;;;;;;;349894;28;976;-85
2021/10/28 00:47:06;;;;;;;;;;;;;;;;;;349801;28;943;-86
2021/10/28 00:47:16;;;;;;;;;;;;;;;;;;348520;28;917;-78
2021/10/28 00:48:18;;;;;;;;;;;;;;;;;;347142;28;878;-86
2021/10/28 00:48:31;;;;;;;;;;;;;;;;;;347134;28;952;-85
2021/10/28 00:48:41;;;;;;;;;;;;;;;;;;346999;28;1467;-86
2021/10/28 00:48:52;;;;;;;;;;;;;;;;;;348008;28;869;-86
2021/10/28 00:49:03;;;;;;;;;;;;;;;;;;348531;28;894;-85
2021/10/28 00:49:13;;;;;;;;;;;;;;;;;;348469;28;961;-87
2021/10/28 00:49:24;;;;;;;;;;;;;;;;;;349282;28;904;-81
2021/10/28 00:49:41;;;;;;;;;;;;;;;;;;348447;28;838;-79
2021/10/28 00:49:52;;;;;;;;;;;;;;;;;;348477;28;830;-87
2021/10/28 00:50:03;;;;;;;;;;;;;;;;;;348450;28;861;-84
2021/10/28 00:50:13;;;;;;;;;;;;;;;;;;349764;28;1403;-81
2021/10/28 00:50:25;;;;;;;;;;;;;;;;;;348445;28;1445;-82
2021/10/28 00:50:36;;;;;;;;;;;;;;;;;;348880;28;1310;-85
2021/10/28 00:50:50;;;;;;;;;;;;;;;;;;348363;28;1470;-83
2021/10/28 00:51:07;;;;;;;;;;;;;;;;;;348395;28;1274;-85
2021/10/28 00:51:19;;;;;;;;;;;;;;;;;;347093;28;791;-82
2021/10/28 00:51:30;;;;;;;;;;;;;;;;;;345455;28;1319;-83
2021/10/28 00:51:41;;;;;;;;;;;;;;;;;;345654;28;917;-79
2021/10/28 00:52:07;;;;;;;;;;;;;;;;;;345701;28;1571;-86
2021/10/28 00:52:18;;;;;;;;;;;;;;;;;;346929;28;1455;-85
2021/10/28 00:52:28;;;;;;;;;;;;;;;;;;346988;28;1438;-85
2021/10/28 00:52:38;;;;;;;;;;;;;;;;;;347053;28;1579;-80
2021/10/28 00:52:49;;;;;;;;;;;;;;;;;;347086;28;992;-81
2021/10/28 00:53:09;;;;;;;;;;;;;;;;;;348395;28;1271;-81
2021/10/28 00:53:26;;;;;;;;;;;;;;;;;;345591;28;1466;-85
2021/10/28 00:53:37;;;;;;;;;;;;;;;;;;345758;28;945;-86
2021/10/28 00:53:48;;;;;;;;;;;;;;;;;;345770;28;921;-82
2021/10/28 00:53:59;;;;;;;;;;;;;;;;;;345735;28;945;-85
2021/10/28 00:54:37;;;;;;;;;;;;;;;;;;347954;28;987;-86
2021/10/28 00:55:19;;;;;;;;;;;;;;;;;;349818;28;948;-82
2021/10/28 00:55:29;;;;;;;;;;;;;;;;;;351246;28;852;-80
2021/10/28 00:55:40;;;;;;;;;;;;;;;;;;351270;28;1091;-83
2021/10/28 00:55:52;;;;;;;;;;;;;;;;;;351022;28;989;-82
2021/10/28 00:56:04;;;;;;;;;;;;;;;;;;350917;28;1410;-82
2021/10/28 00:56:15;;;;;;;;;;;;;;;;;;349829;28;964;-80
2021/10/28 00:56:26;;;;;;;;;;;;;;;;;;351164;28;1463;-81
2021/10/28 00:56:39;;;;;;;;;;;;;;;;;;351092;28;1459;-86
2021/10/28 00:56:50;;;;;;;;;;;;;;;;;;350975;28;1341;-83
2021/10/28 00:57:00;;;;;;;;;;;;;;;;;;351314;28;797;-85
2021/10/28 00:57:10;;;;;;;;;;;;;;;;;;351263;28;971;-87
2021/10/28 00:57:21;;;;;;;;;;;;;;;;;;351231;28;987;-86
2021/10/28 00:57:33;;;;;;;;;;;;;;;;;;349768;28;1283;-84
2021/10/28 00:57:46;;;;;;;;;;;;;;;;;;348385;28;1559;-85
2021/10/28 00:57:56;;;;;;;;;;;;;;;;;;349854;28;1023;-83
2021/10/28 00:58:07;;;;;;;;;;;;;;;;;;349635;28;980;-86
2021/10/28 00:58:20;;;;;;;;;;;;;;;;;;349814;28;1878;-85
2021/10/28 00:58:31;;;;;;;;;;;;;;;;;;348483;28;1020;-87
2021/10/28 00:58:42;;;;;;;;;;;;;;;;;;349811;28;1314;-86
2021/10/28 00:58:52;;;;;;;;;;;;;;;;;;346979;28;1299;-86
2021/10/28 00:59:19;;;;;;;;;;;;;;;;;;345672;28;925;-86
2021/10/28 00:59:29;;;;;;;;;;;;;;;;;;345692;28;1453;-81
2021/10/28 00:59:39;;;;;;;;;;;;;;;;;;346888;28;998;-87
2021/10/28 00:59:52;;;;;;;;;;;;;;;;;;348518;28;910;-86
2021/10/28 01:00:06;;;;;;;;;;;;;;;;;;349742;28;1426;-87
2021/10/28 01:00:16;;;;;;;;;;;;;;;;;;349894;28;968;-87
2021/10/28 01:00:27;;;;;;;;;;;;;;;;;;348455;28;975;-84
2021/10/28 01:00:37;;;;;;;;;;;;;;;;;;348311;28;1427;-85
2021/10/28 01:00:48;;;;;;;;;;;;;;;;;;345685;28;1402;-86
2021/10/28 01:00:59;;;;;;;;;;;;;;;;;;344302;28;1308;-87
2021/10/28 01:01:10;;;;;;;;;;;;;;;;;;345356;28;1395;-81
2021/10/28 01:01:36;;;;;;;;;;;;;;;;;;345639;28;1379;-82
2021/10/28 01:01:51;;;;;;;;;;;;;;;;;;345676;28;1061;-85
2021/10/28 01:02:08;;;;;;;;;;;;;;;;;;348421;28;1184;-82
2021/10/28 01:02:19;;;;;;;;;;;;;;;;;;348530;28;881;-85
2021/10/28 01:02:29;;;;;;;;;;;;;;;;;;345639;28;1123;-86
2021/10/28 01:02:40;;;;;;;;;;;;;;;;;;348358;28;1304;-85
2021/10/28 01:02:51;;;;;;;;;;;;;;;;;;347102;28;1089;-85
2021/10/28 01:03:02;;;;;;;;;;;;;;;;;;345487;28;1340;-81
2021/10/28 01:03:12;;;;;;;;;;;;;;;;;;346906;28;976;-79
2021/10/28 01:04:04;;;;;;;;;;;;;;;;;;347111;28;841;-82
2021/10/28 01:04:14;;;;;;;;;;;;;;;;;;347152;28;865;-85
2021/10/28 01:04:24;;;;;;;;;;;;;;;;;;347113;28;842;-85
2021/10/28 01:05:03;;;;;;;;;;;;;;;;;;349780;28;949;-82
2021/10/28 01:05:13;;;;;;;;;;;;;;;;;;351203;28;1147;-80
2021/10/28 01:05:39;;;;;;;;;;;;;;;;;;349691;28;1439;-79
2021/10/28 01:05:50;;;;;;;;;;;;;;;;;;346939;28;1393;-82
2021/10/28 01:06:01;;;;;;;;;;;;;;;;;;346773;28;1311;-83
2021/10/28 01:06:13;;;;;;;;;;;;;;;;;;347034;28;1420;-81
2021/10/28 01:06:23;;;;;;;;;;;;;;;;;;345556;28;931;-85
2021/10/28 01:06:36;;;;;;;;;;;;;;;;;;346893;28;1164;-84
2021/10/28 01:06:47;;;;;;;;;;;;;;;;;;346712;28;1341;-83
2021/10/28 01:06:58;;;;;;;;;;;;;;;;;;347110;28;976;-87
2021/10/28 01:07:09;;;;;;;;;;;;;;;;;;346856;28;1585;-86
2021/10/28 01:07:19;;;;;;;;;;;;;;;;;;344266;28;1205;-82
2021/10/28 01:07:30;;;;;;;;;;;;;;;;;;344363;28;1048;-85
2021/10/28 01:07:40;;;;;;;;;;;;;;;;;;345488;28;1285;-86
2021/10/28 01:07:50;;;;;;;;;;;;;;;;;;345720;28;944;-87
2021/10/28 01:08:01;;;;;;;;;;;;;;;;;;347057;28;1206;-86
2021/10/28 01:08:15;;;;;;;;;;;;;;;;;;346779;28;1302;-86
2021/10/28 01:08:26;;;;;;;;;;;;;;;;;;346925;28;1468;-85
2021/10/28 01:08:38;;;;;;;;;;;;;;;;;;345611;28;1216;-86
2021/10/28 01:08:49;;;;;;;;;;;;;;;;;;345771;28;941;-80
2021/10/28 01:08:59;;;;;;;;;;;;;;;;;;344267;28;1125;-77
2021/10/28 01:09:10;;;;;;;;;;;;;;;;;;347054;28;1192;-76
2021/10/28 01:09:22;;;;;;;;;;;;;;;;;;346691;28;1273;-81
2021/10/28 01:09:32;;;;;;;;;;;;;;;;;;347002;28;1271;-80
2021/10/28 01:09:43;;;;;;;;;;;;;;;;;;347092;28;795;-82
2021/10/28 01:09:54;;;;;;;;;;;;;;;;;;347123;28;977;-86
2021/10/28 01:10:04;;;;;;;;;;;;;;;;;;348178;28;1338;-85
2021/10/28 01:10:15;;;;;;;;;;;;;;;;;;345695;28;1179;-85
2021/10/28 01:10:25;;;;;;;;;;;;;;;;;;344332;28;926;-81
2021/10/28 01:10:36;;;;;;;;;;;;;;;;;;344269;28;942;-83
2021/10/28 01:10:48;;;;;;;;;;;;;;;;;;349622;28;1468;-78
2021/10/28 01:11:30;;;;;;;;;;;;;;;;;;348464;28;1240;-84
2021/10/28 01:11:40;;;;;;;;;;;;;;;;;;348401;28;972;-85
2021/10/28 01:11:52;;;;;;;;;;;;;;;;;;348382;28;873;-84
2021/10/28 01:12:04;;;;;;;;;;;;;;;;;;346947;28;1207;-81
2021/10/28 01:12:14;;;;;;;;;;;;;;;;;;347030;28;803;-84
2021/10/28 01:12:24;;;;;;;;;;;;;;;;;;348487;28;968;-85
2021/10/28 01:12:35;;;;;;;;;;;;;;;;;;348358;28;1239;-81
2021/10/28 01:12:45;;;;;;;;;;;;;;;;;;347421;28;850;-85
2021/10/28 01:12:56;;;;;;;;;;;;;;;;;;348482;28;996;-85
2021/10/28 01:13:07;;;;;;;;;;;;;;;;;;348398;28;884;-85
2021/10/28 01:13:45;;;;;;;;;;;;;;;;;;347049;28;1231;-85
2021/10/28 01:13:56;;;;;;;;;;;;;;;;;;347084;28;972;-82
2021/10/28 01:14:07;;;;;;;;;;;;;;;;;;348350;28;1335;-86
2021/10/28 01:14:17;;;;;;;;;;;;;;;;;;348458;28;1031;-82
2021/10/28 01:14:39;;;;;;;;;;;;;;;;;;346893;28;1298;-82
2021/10/28 01:14:49;;;;;;;;;;;;;;;;;;345500;28;1433;-80
2021/10/28 01:15:00;;;;;;;;;;;;;;;;;;345762;28;912;-85
2021/10/28 01:15:11;;;;;;;;;;;;;;;;;;347049;28;1223;-80
2021/10/28 01:15:21;;;;;;;;;;;;;;;;;;347067;28;905;-79
2021/10/28 01:15:32;;;;;;;;;;;;;;;;;;347102;28;952;-80
2021/10/28 01:15:43;;;;;;;;;;;;;;;;;;347005;28;1275;-79
2021/10/28 01:15:54;;;;;;;;;;;;;;;;;;347116;28;1170;-82
2021/10/28 01:16:10;;;;;;;;;;;;;;;;;;346862;28;1441;-83
2021/10/28 01:17:02;;;;;;;;;;;;;;;;;;344304;28;1265;-84
2021/10/28 01:17:13;;;;;;;;;;;;;;;;;;344423;28;926;-85
2021/10/28 01:17:24;;;;;;;;;;;;;;;;;;345592;28;986;-78
2021/10/28 01:17:34;;;;;;;;;;;;;;;;;;345581;28;1253;-78
2021/10/28 01:17:45;;;;;;;;;;;;;;;;;;345738;28;783;-79
2021/10/28 01:17:55;;;;;;;;;;;;;;;;;;348196;28;1254;-78
2021/10/28 01:18:39;;;;;;;;;;;;;;;;;;348454;28;900;-85
2021/10/28 01:18:49;;;;;;;;;;;;;;;;;;347015;28;1299;-78
2021/10/28 01:19:00;;;;;;;;;;;;;;;;;;346989;28;988;-79
2021/10/28 01:19:10;;;;;;;;;;;;;;;;;;347083;28;1012;-79
2021/10/28 01:19:22;;;;;;;;;;;;;;;;;;347040;28;1004;-80
2021/10/28 01:19:41;;;;;;;;;;;;;;;;;;347980;28;1019;-85
2021/10/28 01:19:58;;;;;;;;;;;;;;;;;;348500;28;936;-76
2021/10/28 01:20:24;;;;;;;;;;;;;;;;;;349729;28;1271;-78
2021/10/28 01:21:00;;;;;;;;;;;;;;;;;;349760;28;1276;-76
2021/10/28 01:21:11;;;;;;;;;;;;;;;;;;349812;28;909;-78
2021/10/28 01:21:22;;;;;;;;;;;;;;;;;;349797;28;991;-76
2021/10/28 01:21:32;;;;;;;;;;;;;;;;;;349544;28;980;-78
2021/10/28 01:21:43;;;;;;;;;;;;;;;;;;348421;28;813;-80
2021/10/28 01:21:54;;;;;;;;;;;;;;;;;;345596;28;1308;-85
2021/10/28 01:22:05;;;;;;;;;;;;;;;;;;345608;28;969;-81
2021/10/28 01:22:16;;;;;;;;;;;;;;;;;;347075;28;807;-85
2021/10/28 01:22:26;;;;;;;;;;;;;;;;;;347113;28;961;-82
2021/10/28 01:22:38;;;;;;;;;;;;;;;;;;347093;28;1156;-81
2021/10/28 01:22:49;;;;;;;;;;;;;;;;;;347055;28;889;-85
2021/10/28 01:22:59;;;;;;;;;;;;;;;;;;348301;28;1612;-85
2021/10/28 01:23:25;;;;;;;;;;;;;;;;;;348494;28;814;-83
2021/10/28 01:24:03;;;;;;;;;;;;;;;;;;348495;28;881;-82
2021/10/28 01:24:13;;;;;;;;;;;;;;;;;;346313;28;892;-82
2021/10/28 01:24:24;;;;;;;;;;;;;;;;;;345720;28;967;-78
2021/10/28 01:24:34;;;;;;;;;;;;;;;;;;347939;28;906;-80
2021/10/28 01:25:38;;;;;;;;;;;;;;;;;;349774;28;1007;-78
2021/10/28 01:25:53;;;;;;;;;;;;;;;;;;349769;28;1440;-87
2021/10/28 01:26:05;;;;;;;;;;;;;;;;;;349819;28;968;-78
2021/10/28 01:26:16;;;;;;;;;;;;;;;;;;351207;28;976;-85
2021/10/28 01:26:27;;;;;;;;;;;;;;;;;;351066;28;980;-76
2021/10/28 01:26:37;;;;;;;;;;;;;;;;;;349848;28;841;-77
2021/10/28 01:26:48;;;;;;;;;;;;;;;;;;351211;28;908;-80
2021/10/28 01:27:05;;;;;;;;;;;;;;;;;;349740;28;1248;-79
2021/10/28 01:27:16;;;;;;;;;;;;;;;;;;349775;28;850;-82
2021/10/28 01:27:26;;;;;;;;;;;;;;;;;;348429;28;941;-79
2021/10/28 01:27:37;;;;;;;;;;;;;;;;;;348503;28;968;-81
2021/10/28 01:28:15;;;;;;;;;;;;;;;;;;348440;28;829;-81
2021/10/28 01:28:27;;;;;;;;;;;;;;;;;;348456;28;920;-85
2021/10/28 01:28:39;;;;;;;;;;;;;;;;;;347097;28;790;-84
2021/10/28 01:29:00;;;;;;;;;;;;;;;;;;345696;28;1553;-83
2021/10/28 01:29:11;;;;;;;;;;;;;;;;;;346929;28;982;-81
2021/10/28 01:29:21;;;;;;;;;;;;;;;;;;346877;28;1061;-80
2021/10/28 01:29:32;;;;;;;;;;;;;;;;;;347125;28;837;-79
2021/10/28 01:29:43;;;;;;;;;;;;;;;;;;348251;28;870;-78
2021/10/28 01:29:54;;;;;;;;;;;;;;;;;;349693;28;950;-83
2021/10/28 01:30:05;;;;;;;;;;;;;;;;;;348366;28;869;-80
2021/10/28 01:30:16;;;;;;;;;;;;;;;;;;348468;28;995;-83
2021/10/28 01:30:26;;;;;;;;;;;;;;;;;;348410;28;1005;-82
2021/10/28 01:30:51;;;;;;;;;;;;;;;;;;346884;28;1329;-82
2021/10/28 01:31:09;;;;;;;;;;;;;;;;;;348492;28;810;-87
2021/10/28 01:31:21;;;;;;;;;;;;;;;;;;346937;28;1277;-80
2021/10/28 01:31:33;;;;;;;;;;;;;;;;;;347087;28;901;-86
2021/10/28 01:33:06;;;;;;;;;;;;;;;;;;349788;28;964;-83
2021/10/28 01:33:17;;;;;;;;;;;;;;;;;;349918;28;960;-84
2021/10/28 01:33:28;;;;;;;;;;;;;;;;;;351154;28;1507;-77
2021/10/28 01:33:40;;;;;;;;;;;;;;;;;;349728;28;1542;-76
2021/10/28 01:33:57;;;;;;;;;;;;;;;;;;348372;28;1587;-83
2021/10/28 01:34:17;;;;;;;;;;;;;;;;;;347040;28;1281;-82
2021/10/28 01:34:28;;;;;;;;;;;;;;;;;;346989;28;1533;-80
2021/10/28 01:34:42;;;;;;;;;;;;;;;;;;346969;28;929;-79
2021/10/28 01:35:08;;;;;;;;;;;;;;;;;;344337;28;1247;-86
2021/10/28 01:35:19;;;;;;;;;;;;;;;;;;347079;28;925;-84
2021/10/28 01:35:29;;;;;;;;;;;;;;;;;;345571;28;1284;-85
2021/10/28 01:35:40;;;;;;;;;;;;;;;;;;345705;28;965;-84
2021/10/28 01:35:51;;;;;;;;;;;;;;;;;;345666;28;977;-78
2021/10/28 01:36:31;;;;;;;;;;;;;;;;;;345709;28;1028;-84
2021/10/28 01:36:41;;;;;;;;;;;;;;;;;;346863;28;1447;-78
2021/10/28 01:36:52;;;;;;;;;;;;;;;;;;344303;28;1337;-84
2021/10/28 01:37:29;;;;;;;;;;;;;;;;;;345365;28;999;-79
2021/10/28 01:37:43;;;;;;;;;;;;;;;;;;347067;28;790;-85
2021/10/28 01:38:13;;;;;;;;;;;;;;;;;;347099;28;897;-76
2021/10/28 01:38:27;;;;;;;;;;;;;;;;;;348484;28;873;-80
2021/10/28 01:38:38;;;;;;;;;;;;;;;;;;348970;28;1543;-83
2021/10/28 01:38:49;;;;;;;;;;;;;;;;;;349340;28;822;-77
2021/10/28 01:39:12;;;;;;;;;;;;;;;;;;349719;28;1024;-78
2021/10/28 01:39:23;;;;;;;;;;;;;;;;;;349788;28;1072;-81
2021/10/28 01:39:34;;;;;;;;;;;;;;;;;;349388;28;864;-78
2021/10/28 01:39:44;;;;;;;;;;;;;;;;;;348407;28;1032;-79
2021/10/28 01:39:55;;;;;;;;;;;;;;;;;;348469;28;990;-84
2021/10/28 01:40:05;;;;;;;;;;;;;;;;;;349842;28;1028;-84
2021/10/28 01:40:43;;;;;;;;;;;;;;;;;;349816;28;771;-81
2021/10/28 01:40:58;;;;;;;;;;;;;;;;;;348371;28;1302;-78
2021/10/28 01:41:10;;;;;;;;;;;;;;;;;;348387;28;956;-84
2021/10/28 01:41:21;;;;;;;;;;;;;;;;;;349609;28;1517;-77
2021/10/28 01:41:37;;;;;;;;;;;;;;;;;;349814;28;933;-81
2021/10/28 01:41:49;;;;;;;;;;;;;;;;;;345566;28;1308;-83
2021/10/28 01:42:06;;;;;;;;;;;;;;;;;;345555;28;1255;-76
2021/10/28 01:42:23;;;;;;;;;;;;;;;;;;345646;28;889;-80
2021/10/28 01:42:33;;;;;;;;;;;;;;;;;;345623;28;926;-80
2021/10/28 01:42:48;;;;;;;;;;;;;;;;;;348330;28;1375;-78
2021/10/28 01:43:13;;;;;;;;;;;;;;;;;;348459;28;834;-82
2021/10/28 01:43:25;;;;;;;;;;;;;;;;;;348322;28;853;-83
2021/10/28 01:43:53;;;;;;;;;;;;;;;;;;348497;28;945;-84
2021/10/28 01:44:03;;;;;;;;;;;;;;;;;;349707;28;1287;-86
2021/10/28 01:44:14;;;;;;;;;;;;;;;;;;349874;28;826;-84
2021/10/28 01:44:27;;;;;;;;;;;;;;;;;;349816;28;1004;-82
2021/10/28 01:44:38;;;;;;;;;;;;;;;;;;348361;28;1463;-85
2021/10/28 01:44:48;;;;;;;;;;;;;;;;;;348300;28;1034;-86
2021/10/28 01:45:28;;;;;;;;;;;;;;;;;;348469;28;965;-77
2021/10/28 01:45:38;;;;;;;;;;;;;;;;;;346915;28;796;-79
2021/10/28 01:45:49;;;;;;;;;;;;;;;;;;347099;28;949;-79
2021/10/28 01:46:15;;;;;;;;;;;;;;;;;;346994;28;1318;-77
2021/10/28 01:46:25;;;;;;;;;;;;;;;;;;347078;28;815;-83
2021/10/28 01:46:35;;;;;;;;;;;;;;;;;;346773;28;1302;-79
2021/10/28 01:46:46;;;;;;;;;;;;;;;;;;347018;28;958;-82
2021/10/28 01:46:57;;;;;;;;;;;;;;;;;;347098;28;1220;-78
2021/10/28 01:47:12;;;;;;;;;;;;;;;;;;344255;28;1538;-79
2021/10/28 01:47:22;;;;;;;;;;;;;;;;;;344321;28;949;-86
2021/10/28 01:47:33;;;;;;;;;;;;;;;;;;345584;28;1248;-87
2021/10/28 01:47:43;;;;;;;;;;;;;;;;;;346630;28;1360;-85
2021/10/28 01:47:54;;;;;;;;;;;;;;;;;;346781;28;1307;-84
2021/10/28 01:48:04;;;;;;;;;;;;;;;;;;348461;28;909;-85
2021/10/28 01:48:14;;;;;;;;;;;;;;;;;;345697;28;1425;-85
2021/10/28 01:48:26;;;;;;;;;;;;;;;;;;344292;28;1349;-83
2021/10/28 01:48:40;;;;;;;;;;;;;;;;;;344457;28;779;-86
2021/10/28 01:48:50;;;;;;;;;;;;;;;;;;345593;28;1434;-83
2021/10/28 01:49:28;;;;;;;;;;;;;;;;;;345672;28;1123;-81
2021/10/28 01:49:38;;;;;;;;;;;;;;;;;;348315;28;1050;-85
2021/10/28 01:49:49;;;;;;;;;;;;;;;;;;348474;28;818;-83
2021/10/28 01:49:59;;;;;;;;;;;;;;;;;;348414;28;829;-85
2021/10/28 01:50:11;;;;;;;;;;;;;;;;;;347586;28;782;-82
2021/10/28 01:50:21;;;;;;;;;;;;;;;;;;349149;28;802;-85
2021/10/28 01:50:32;;;;;;;;;;;;;;;;;;349874;28;893;-84
2021/10/28 01:50:42;;;;;;;;;;;;;;;;;;346800;28;1252;-83
2021/10/28 01:50:53;;;;;;;;;;;;;;;;;;347070;28;913;-85
2021/10/28 01:51:04;;;;;;;;;;;;;;;;;;348150;28;1035;-86
2021/10/28 01:51:30;;;;;;;;;;;;;;;;;;348452;28;989;-86
2021/10/28 01:51:40;;;;;;;;;;;;;;;;;;348394;28;953;-86
2021/10/28 01:51:53;;;;;;;;;;;;;;;;;;348393;28;1337;-85
2021/10/28 01:52:04;;;;;;;;;;;;;;;;;;346953;28;1643;-83
2021/10/28 01:52:41;;;;;;;;;;;;;;;;;;345544;28;1110;-85
2021/10/28 01:52:53;;;;;;;;;;;;;;;;;;344208;28;1475;-84
2021/10/28 01:53:09;;;;;;;;;;;;;;;;;;346908;28;1577;-86
2021/10/28 01:53:52;;;;;;;;;;;;;;;;;;348444;28;1000;-86
2021/10/28 01:54:31;;;;;;;;;;;;;;;;;;348514;28;1187;-88
2021/10/28 01:54:42;;;;;;;;;;;;;;;;;;348214;28;1136;-86
2021/10/28 01:54:52;;;;;;;;;;;;;;;;;;346988;28;1218;-83
2021/10/28 01:55:03;;;;;;;;;;;;;;;;;;345791;28;1449;-86
2021/10/28 01:55:13;;;;;;;;;;;;;;;;;;348135;28;1307;-83
2021/10/28 01:55:24;;;;;;;;;;;;;;;;;;348472;28;937;-86
2021/10/28 01:55:35;;;;;;;;;;;;;;;;;;348391;28;1001;-82
2021/10/28 01:55:46;;;;;;;;;;;;;;;;;;348476;28;989;-80
2021/10/28 01:55:56;;;;;;;;;;;;;;;;;;348493;28;830;-86
2021/10/28 01:56:07;;;;;;;;;;;;;;;;;;348484;28;834;-85
2021/10/28 01:56:18;;;;;;;;;;;;;;;;;;348353;28;1009;-83
2021/10/28 01:56:29;;;;;;;;;;;;;;;;;;348281;28;1429;-85
2021/10/28 01:56:39;;;;;;;;;;;;;;;;;;348191;28;1390;-85
2021/10/28 01:56:50;;;;;;;;;;;;;;;;;;346873;28;1199;-83
2021/10/28 01:57:00;;;;;;;;;;;;;;;;;;347044;28;878;-84
2021/10/28 01:57:21;;;;;;;;;;;;;;;;;;347128;28;834;-85
2021/10/28 01:57:58;;;;;;;;;;;;;;;;;;346942;28;969;-85
2021/10/28 01:58:30;;;;;;;;;;;;;;;;;;347045;28;1947;-84
2021/10/28 01:58:40;;;;;;;;;;;;;;;;;;349543;28;945;-83
2021/10/28 01:58:51;;;;;;;;;;;;;;;;;;352210;28;993;-82
2021/10/28 01:59:02;;;;;;;;;;;;;;;;;;351228;28;929;-81
2021/10/28 01:59:12;;;;;;;;;;;;;;;;;;349772;28;1159;-86